Quackenkill, NY

3:39 PM EST on February 26, 2017 (GMT -0500)
West Grafton | | Change Station
Active Advisory: Flood Warning Active Notice: Public Information Statement

Elev 1210 ft 42.76 °N, 73.50 °W | Updated 50 days ago

Overcast
Overcast
8.4 °F
Feels Like 8.4 °F
N
0.0
Wind Variable Wind from East
Gusts 0.0 mph

Today
High -- | Low -- °F
--% Chance of Precip.
Yesterday
High -- | Low -- °F
Precip. -- in
Pressure 30.03 in
Visibility 10.0 miles
Clouds Scattered Clouds 5000 ft
Mostly Cloudy 6000 ft
Overcast 25000 ft
Dew Point 5.6 °F
Humidity 88%
Rainfall in
Snow Depth Not available.
6:34 AM 5:40 PM
New Moon, 0% visible
METAR KALB 261951Z 30013G22KT 10SM SCT050 BKN060 OVC250 02/M09 A3002 RMK AO2 PK WND 30026/1923 SLP168 PRESENT WX VCSH BINOVC T00221094
Pressure 30.03 in
Visibility 10.0 miles
Clouds Scattered Clouds 5000 ft
Mostly Cloudy 6000 ft
Overcast 25000 ft
Dew Point 5.6 °F
Humidity 88%
Rainfall in
Snow Depth Not available.
6:34 AM 5:40 PM
New Moon, 0% visible
METAR KALB 261951Z 30013G22KT 10SM SCT050 BKN060 OVC250 02/M09 A3002 RMK AO2 PK WND 30026/1923 SLP168 PRESENT WX VCSH BINOVC T00221094

Get Your Daily Forecast Email!

Thanks for signing up!

Be on the lookout for a verification email in your inbox.

You'll start receiving the daily forecast at 8 AM.

×

10-Day Weather Forecast

Almanac

Astronomy

Feb. 26, 2017 Rise Set
Actual Time
Civil Twilight
Nautical Twilight
Astronomical Twilight
Moon
Length of Visible Light
Length of Day
Tomorrow will be .
, % of the Moon is Illuminated

Today's Extremes

State Highs State Lows

Community

WunderPhotos

Upload Photos

1,962,540 photos uploaded!

WunderBlog® & News

Nearby

Air Quality

  Air Quality AQ Index Pollutant
Not available.

Snow Depth

Station Depth Elevation

Earthquake Activity

City Distance Mag. Time & Date
Minimum magnitude displayed is 2.5.

Coastal Water Temperatures

Place Temperature

Stations

Nearby Weather Stations

Station Location Temp. Windchill Dew Point Humidity Wind Precip. Elev Updated Type
                   

Watches & Warnings

Flood Warning
Issued: 2:34 PM EST Feb. 26, 2017 – National Weather Service

The National Weather Service in Albany has issued a

* Flood Warning for
the Hudson River at Troy.
* From this afternoon until late tonight.
* At 2 PM Sunday the stage was... 21.5 feet.
* Flood stage is 21.5 feet.
* Minor flooding is forecast.
* Forecast... the river is forecast to reach flood stage by 2 PM
Sunday and forecast to continue to rise to near 21.7 feet around
7 PM Sunday. The river is forecast to fall below flood stage after
7 PM Sunday.
* Impact... at 21.5 feet... minor flood stage. Water floods onto the
Mohawk wharf in Village of Waterford.


                  Fld observed forecast
                                       7 PM 1 am 7 am 1 PM 7 PM
location stg stg day time sun Mon Mon Mon Mon

Hudson River
Troy 21.5 21.5 sun 02 PM 21.7 20.4 20.2 19.9 19.5


lat... Lon 4269 7376 4266 7368 4280 7361 4283 7372